sensor_id;sensor_type;location;lat;lon;timestamp;P1;durP1;ratioP1;P2;durP2;ratioP2
18526;SDS011;9393;42.158;24.748;2023-10-31T00:02:46;14.50;;;8.43;;
18526;SDS011;9393;42.158;24.748;2023-10-31T00:05:50;12.27;;;7.10;;
18526;SDS011;9393;42.158;24.748;2023-10-31T00:08:54;14.47;;;7.53;;
18526;SDS011;9393;42.158;24.748;2023-10-31T00:11:58;13.33;;;7.30;;
18526;SDS011;9393;42.158;24.748;2023-10-31T00:15:02;15.80;;;7.87;;
18526;SDS011;9393;42.158;24.748;2023-10-31T00:18:08;15.03;;;7.57;;
18526;SDS011;9393;42.158;24.748;2023-10-31T00:21:12;12.97;;;7.20;;
18526;SDS011;9393;42.158;24.748;2023-10-31T00:24:20;16.67;;;7.20;;
18526;SDS011;9393;42.158;24.748;2023-10-31T00:27:24;13.80;;;7.10;;
18526;SDS011;9393;42.158;24.748;2023-10-31T00:30:28;13.57;;;6.97;;
18526;SDS011;9393;42.158;24.748;2023-10-31T00:33:33;15.53;;;7.40;;
18526;SDS011;9393;42.158;24.748;2023-10-31T00:36:38;15.33;;;7.53;;
18526;SDS011;9393;42.158;24.748;2023-10-31T00:39:42;17.67;;;7.43;;
18526;SDS011;9393;42.158;24.748;2023-10-31T00:42:46;15.87;;;7.83;;
18526;SDS011;9393;42.158;24.748;2023-10-31T00:45:50;15.27;;;7.87;;
18526;SDS011;9393;42.158;24.748;2023-10-31T00:48:55;17.23;;;7.70;;
18526;SDS011;9393;42.158;24.748;2023-10-31T00:51:59;14.60;;;7.83;;
18526;SDS011;9393;42.158;24.748;2023-10-31T00:55:03;12.63;;;8.00;;
18526;SDS011;9393;42.158;24.748;2023-10-31T00:58:08;15.27;;;7.43;;
18526;SDS011;9393;42.158;24.748;2023-10-31T01:01:12;14.83;;;7.00;;
18526;SDS011;9393;42.158;24.748;2023-10-31T01:04:17;12.07;;;7.10;;
18526;SDS011;9393;42.158;24.748;2023-10-31T01:07:21;12.97;;;7.03;;
18526;SDS011;9393;42.158;24.748;2023-10-31T01:10:26;14.10;;;6.77;;
18526;SDS011;9393;42.158;24.748;2023-10-31T01:13:30;14.17;;;7.60;;
18526;SDS011;9393;42.158;24.748;2023-10-31T01:16:34;15.63;;;7.20;;
18526;SDS011;9393;42.158;24.748;2023-10-31T01:19:39;14.53;;;7.33;;
18526;SDS011;9393;42.158;24.748;2023-10-31T01:22:44;14.27;;;7.80;;
18526;SDS011;9393;42.158;24.748;2023-10-31T01:25:48;15.13;;;7.33;;
18526;SDS011;9393;42.158;24.748;2023-10-31T01:28:52;17.40;;;7.73;;
18526;SDS011;9393;42.158;24.748;2023-10-31T01:31:56;10.53;;;7.33;;
18526;SDS011;9393;42.158;24.748;2023-10-31T01:35:09;13.60;;;7.93;;
18526;SDS011;9393;42.158;24.748;2023-10-31T01:38:13;12.40;;;7.83;;
18526;SDS011;9393;42.158;24.748;2023-10-31T01:41:17;14.47;;;7.77;;
18526;SDS011;9393;42.158;24.748;2023-10-31T01:44:21;13.93;;;8.27;;
18526;SDS011;9393;42.158;24.748;2023-10-31T01:47:25;12.77;;;8.07;;
18526;SDS011;9393;42.158;24.748;2023-10-31T01:50:31;16.87;;;8.10;;
18526;SDS011;9393;42.158;24.748;2023-10-31T01:53:35;13.30;;;8.07;;
18526;SDS011;9393;42.158;24.748;2023-10-31T01:56:39;18.20;;;7.63;;
18526;SDS011;9393;42.158;24.748;2023-10-31T01:59:44;13.00;;;7.87;;
18526;SDS011;9393;42.158;24.748;2023-10-31T02:02:48;14.13;;;7.90;;
18526;SDS011;9393;42.158;24.748;2023-10-31T02:05:57;14.47;;;7.87;;
18526;SDS011;9393;42.158;24.748;2023-10-31T02:09:01;16.97;;;8.50;;
18526;SDS011;9393;42.158;24.748;2023-10-31T02:12:05;17.00;;;7.80;;
18526;SDS011;9393;42.158;24.748;2023-10-31T02:15:09;18.00;;;8.77;;
18526;SDS011;9393;42.158;24.748;2023-10-31T02:18:13;15.60;;;8.53;;
18526;SDS011;9393;42.158;24.748;2023-10-31T02:21:19;17.87;;;8.90;;
18526;SDS011;9393;42.158;24.748;2023-10-31T02:24:25;14.17;;;7.97;;
18526;SDS011;9393;42.158;24.748;2023-10-31T02:27:29;24.43;;;7.57;;
18526;SDS011;9393;42.158;24.748;2023-10-31T02:30:33;16.13;;;7.90;;
18526;SDS011;9393;42.158;24.748;2023-10-31T02:33:38;19.50;;;8.47;;
18526;SDS011;9393;42.158;24.748;2023-10-31T02:36:42;13.90;;;7.73;;
18526;SDS011;9393;42.158;24.748;2023-10-31T02:39:47;14.80;;;7.73;;
18526;SDS011;9393;42.158;24.748;2023-10-31T02:42:51;14.67;;;7.83;;
18526;SDS011;9393;42.158;24.748;2023-10-31T02:45:55;17.63;;;7.10;;
18526;SDS011;9393;42.158;24.748;2023-10-31T02:48:59;14.80;;;7.33;;
18526;SDS011;9393;42.158;24.748;2023-10-31T02:52:03;15.03;;;7.53;;
18526;SDS011;9393;42.158;24.748;2023-10-31T02:55:09;14.47;;;7.60;;
18526;SDS011;9393;42.158;24.748;2023-10-31T02:58:12;12.03;;;7.13;;
18526;SDS011;9393;42.158;24.748;2023-10-31T03:01:16;12.10;;;7.10;;
18526;SDS011;9393;42.158;24.748;2023-10-31T03:04:22;16.30;;;7.37;;
18526;SDS011;9393;42.158;24.748;2023-10-31T03:07:26;10.33;;;6.90;;
18526;SDS011;9393;42.158;24.748;2023-10-31T03:10:31;14.27;;;7.70;;
18526;SDS011;9393;42.158;24.748;2023-10-31T03:13:35;13.97;;;7.13;;
18526;SDS011;9393;42.158;24.748;2023-10-31T03:16:39;14.30;;;7.47;;
18526;SDS011;9393;42.158;24.748;2023-10-31T03:19:43;13.60;;;8.00;;
18526;SDS011;9393;42.158;24.748;2023-10-31T03:22:47;15.53;;;8.03;;
18526;SDS011;9393;42.158;24.748;2023-10-31T03:25:53;15.20;;;7.97;;
18526;SDS011;9393;42.158;24.748;2023-10-31T03:28:57;13.30;;;8.07;;
18526;SDS011;9393;42.158;24.748;2023-10-31T03:32:01;15.27;;;7.83;;
18526;SDS011;9393;42.158;24.748;2023-10-31T03:35:07;19.00;;;7.40;;
18526;SDS011;9393;42.158;24.748;2023-10-31T03:38:11;18.90;;;7.43;;
18526;SDS011;9393;42.158;24.748;2023-10-31T03:41:17;12.63;;;7.80;;
18526;SDS011;9393;42.158;24.748;2023-10-31T03:44:21;14.00;;;7.70;;
18526;SDS011;9393;42.158;24.748;2023-10-31T03:47:25;17.93;;;7.77;;
18526;SDS011;9393;42.158;24.748;2023-10-31T03:50:30;14.87;;;8.93;;
18526;SDS011;9393;42.158;24.748;2023-10-31T03:53:35;16.40;;;8.07;;
18526;SDS011;9393;42.158;24.748;2023-10-31T03:56:40;15.90;;;8.23;;
18526;SDS011;9393;42.158;24.748;2023-10-31T03:59:47;14.77;;;8.20;;
18526;SDS011;9393;42.158;24.748;2023-10-31T04:02:50;16.30;;;8.63;;
18526;SDS011;9393;42.158;24.748;2023-10-31T04:05:55;13.93;;;8.10;;
18526;SDS011;9393;42.158;24.748;2023-10-31T04:08:59;16.20;;;8.87;;
18526;SDS011;9393;42.158;24.748;2023-10-31T04:12:05;15.60;;;8.47;;
18526;SDS011;9393;42.158;24.748;2023-10-31T04:15:10;17.97;;;9.07;;
18526;SDS011;9393;42.158;24.748;2023-10-31T04:18:14;19.70;;;9.10;;
18526;SDS011;9393;42.158;24.748;2023-10-31T04:21:18;18.60;;;9.00;;
18526;SDS011;9393;42.158;24.748;2023-10-31T04:24:22;18.73;;;8.70;;
18526;SDS011;9393;42.158;24.748;2023-10-31T04:27:28;14.37;;;8.80;;
18526;SDS011;9393;42.158;24.748;2023-10-31T04:30:33;18.00;;;9.57;;
18526;SDS011;9393;42.158;24.748;2023-10-31T04:33:37;18.93;;;9.60;;
18526;SDS011;9393;42.158;24.748;2023-10-31T04:36:41;18.87;;;9.93;;
18526;SDS011;9393;42.158;24.748;2023-10-31T04:39:45;22.63;;;9.50;;
18526;SDS011;9393;42.158;24.748;2023-10-31T04:42:50;17.97;;;9.63;;
18526;SDS011;9393;42.158;24.748;2023-10-31T04:45:54;18.40;;;9.23;;
18526;SDS011;9393;42.158;24.748;2023-10-31T04:48:58;12.33;;;8.47;;
18526;SDS011;9393;42.158;24.748;2023-10-31T04:52:02;20.70;;;9.23;;
18526;SDS011;9393;42.158;24.748;2023-10-31T04:55:07;14.30;;;8.03;;
18526;SDS011;9393;42.158;24.748;2023-10-31T04:58:13;14.97;;;8.10;;
18526;SDS011;9393;42.158;24.748;2023-10-31T05:01:17;16.33;;;8.40;;
18526;SDS011;9393;42.158;24.748;2023-10-31T05:04:22;15.07;;;8.93;;
18526;SDS011;9393;42.158;24.748;2023-10-31T05:07:26;14.10;;;8.67;;
18526;SDS011;9393;42.158;24.748;2023-10-31T05:10:29;13.93;;;8.23;;
18526;SDS011;9393;42.158;24.748;2023-10-31T05:13:35;17.67;;;10.13;;
18526;SDS011;9393;42.158;24.748;2023-10-31T05:16:39;19.57;;;9.70;;
18526;SDS011;9393;42.158;24.748;2023-10-31T05:19:44;15.90;;;8.83;;
18526;SDS011;9393;42.158;24.748;2023-10-31T05:22:48;16.20;;;9.40;;
18526;SDS011;9393;42.158;24.748;2023-10-31T05:25:51;20.57;;;9.13;;
18526;SDS011;9393;42.158;24.748;2023-10-31T05:28:57;18.13;;;8.97;;
18526;SDS011;9393;42.158;24.748;2023-10-31T05:32:01;16.20;;;9.07;;
18526;SDS011;9393;42.158;24.748;2023-10-31T05:35:06;16.87;;;9.53;;
18526;SDS011;9393;42.158;24.748;2023-10-31T05:38:11;18.27;;;9.90;;
18526;SDS011;9393;42.158;24.748;2023-10-31T05:41:15;22.60;;;9.80;;
18526;SDS011;9393;42.158;24.748;2023-10-31T05:44:20;16.87;;;9.20;;
18526;SDS011;9393;42.158;24.748;2023-10-31T05:47:24;15.57;;;9.70;;
18526;SDS011;9393;42.158;24.748;2023-10-31T05:50:29;14.73;;;9.13;;
18526;SDS011;9393;42.158;24.748;2023-10-31T05:53:33;15.43;;;8.63;;
18526;SDS011;9393;42.158;24.748;2023-10-31T05:56:38;19.73;;;9.70;;
18526;SDS011;9393;42.158;24.748;2023-10-31T05:59:43;17.37;;;10.00;;
18526;SDS011;9393;42.158;24.748;2023-10-31T06:02:47;15.70;;;8.77;;
18526;SDS011;9393;42.158;24.748;2023-10-31T06:05:51;20.30;;;9.13;;
18526;SDS011;9393;42.158;24.748;2023-10-31T06:08:55;16.80;;;8.60;;
18526;SDS011;9393;42.158;24.748;2023-10-31T06:11:59;15.17;;;8.53;;
18526;SDS011;9393;42.158;24.748;2023-10-31T06:15:05;15.30;;;8.60;;
18526;SDS011;9393;42.158;24.748;2023-10-31T06:18:10;13.67;;;8.70;;
18526;SDS011;9393;42.158;24.748;2023-10-31T06:21:15;17.70;;;9.33;;
18526;SDS011;9393;42.158;24.748;2023-10-31T06:24:19;20.57;;;8.77;;
18526;SDS011;9393;42.158;24.748;2023-10-31T06:27:23;21.67;;;9.27;;
18526;SDS011;9393;42.158;24.748;2023-10-31T06:30:29;19.43;;;8.27;;
18526;SDS011;9393;42.158;24.748;2023-10-31T06:33:33;16.77;;;8.40;;
18526;SDS011;9393;42.158;24.748;2023-10-31T06:36:37;15.77;;;7.60;;
18526;SDS011;9393;42.158;24.748;2023-10-31T06:39:41;16.63;;;8.67;;
18526;SDS011;9393;42.158;24.748;2023-10-31T06:42:45;17.77;;;8.83;;
18526;SDS011;9393;42.158;24.748;2023-10-31T06:45:51;12.00;;;7.20;;
18526;SDS011;9393;42.158;24.748;2023-10-31T06:48:55;14.27;;;6.80;;
18526;SDS011;9393;42.158;24.748;2023-10-31T06:52:00;12.10;;;6.93;;
18526;SDS011;9393;42.158;24.748;2023-10-31T06:55:04;11.03;;;6.80;;
18526;SDS011;9393;42.158;24.748;2023-10-31T06:58:09;15.40;;;6.97;;
18526;SDS011;9393;42.158;24.748;2023-10-31T07:01:15;15.37;;;7.17;;
18526;SDS011;9393;42.158;24.748;2023-10-31T07:04:21;11.63;;;7.20;;
18526;SDS011;9393;42.158;24.748;2023-10-31T07:07:25;15.03;;;7.97;;
18526;SDS011;9393;42.158;24.748;2023-10-31T07:10:30;20.47;;;8.50;;
18526;SDS011;9393;42.158;24.748;2023-10-31T07:13:35;23.40;;;9.00;;
18526;SDS011;9393;42.158;24.748;2023-10-31T07:16:40;22.63;;;8.88;;
18526;SDS011;9393;42.158;24.748;2023-10-31T07:19:46;16.80;;;8.82;;
18526;SDS011;9393;42.158;24.748;2023-10-31T07:22:50;23.13;;;8.87;;
18526;SDS011;9393;42.158;24.748;2023-10-31T07:25:54;17.52;;;8.05;;
18526;SDS011;9393;42.158;24.748;2023-10-31T07:28:58;16.48;;;8.60;;
18526;SDS011;9393;42.158;24.748;2023-10-31T07:32:04;20.10;;;8.38;;
18526;SDS011;9393;42.158;24.748;2023-10-31T07:35:11;23.15;;;8.02;;
18526;SDS011;9393;42.158;24.748;2023-10-31T07:38:15;18.83;;;8.23;;
18526;SDS011;9393;42.158;24.748;2023-10-31T07:41:20;17.80;;;7.72;;
18526;SDS011;9393;42.158;24.748;2023-10-31T07:44:24;15.50;;;7.35;;
18526;SDS011;9393;42.158;24.748;2023-10-31T07:47:30;12.55;;;7.57;;
18526;SDS011;9393;42.158;24.748;2023-10-31T07:50:35;19.02;;;7.47;;
18526;SDS011;9393;42.158;24.748;2023-10-31T07:53:39;19.15;;;7.55;;
18526;SDS011;9393;42.158;24.748;2023-10-31T07:56:45;16.65;;;6.90;;
18526;SDS011;9393;42.158;24.748;2023-10-31T07:59:49;13.30;;;7.22;;
18526;SDS011;9393;42.158;24.748;2023-10-31T08:02:54;14.30;;;7.00;;
18526;SDS011;9393;42.158;24.748;2023-10-31T08:05:59;17.77;;;8.05;;
18526;SDS011;9393;42.158;24.748;2023-10-31T08:09:03;17.77;;;8.13;;
18526;SDS011;9393;42.158;24.748;2023-10-31T08:12:10;15.35;;;7.60;;
18526;SDS011;9393;42.158;24.748;2023-10-31T08:15:14;14.40;;;6.93;;
18526;SDS011;9393;42.158;24.748;2023-10-31T08:18:21;13.27;;;6.70;;
18526;SDS011;9393;42.158;24.748;2023-10-31T08:21:26;15.15;;;7.03;;
18526;SDS011;9393;42.158;24.748;2023-10-31T08:24:35;15.00;;;6.43;;
18526;SDS011;9393;42.158;24.748;2023-10-31T08:27:39;10.73;;;6.38;;
18526;SDS011;9393;42.158;24.748;2023-10-31T08:30:43;17.00;;;6.05;;
18526;SDS011;9393;42.158;24.748;2023-10-31T08:33:49;19.92;;;6.65;;
18526;SDS011;9393;42.158;24.748;2023-10-31T08:36:53;12.35;;;6.80;;
18526;SDS011;9393;42.158;24.748;2023-10-31T08:39:59;15.05;;;6.95;;
18526;SDS011;9393;42.158;24.748;2023-10-31T08:43:05;13.43;;;6.45;;
18526;SDS011;9393;42.158;24.748;2023-10-31T08:46:09;13.00;;;6.43;;
18526;SDS011;9393;42.158;24.748;2023-10-31T08:49:15;15.50;;;7.15;;
18526;SDS011;9393;42.158;24.748;2023-10-31T08:52:20;12.20;;;7.30;;
18526;SDS011;9393;42.158;24.748;2023-10-31T08:55:24;19.08;;;8.40;;
18526;SDS011;9393;42.158;24.748;2023-10-31T08:58:28;19.92;;;7.60;;
18526;SDS011;9393;42.158;24.748;2023-10-31T09:01:33;20.65;;;7.28;;
18526;SDS011;9393;42.158;24.748;2023-10-31T09:04:39;14.98;;;7.40;;
18526;SDS011;9393;42.158;24.748;2023-10-31T09:07:43;13.63;;;6.63;;
18526;SDS011;9393;42.158;24.748;2023-10-31T09:10:48;18.80;;;6.47;;
18526;SDS011;9393;42.158;24.748;2023-10-31T09:13:52;20.08;;;6.68;;
18526;SDS011;9393;42.158;24.748;2023-10-31T09:16:56;17.20;;;6.90;;
18526;SDS011;9393;42.158;24.748;2023-10-31T09:20:02;14.35;;;6.45;;
18526;SDS011;9393;42.158;24.748;2023-10-31T09:23:07;13.85;;;6.30;;
18526;SDS011;9393;42.158;24.748;2023-10-31T09:26:11;14.63;;;5.13;;
18526;SDS011;9393;42.158;24.748;2023-10-31T09:29:16;11.18;;;5.07;;
18526;SDS011;9393;42.158;24.748;2023-10-31T09:32:30;10.55;;;4.55;;
18526;SDS011;9393;42.158;24.748;2023-10-31T09:35:36;10.13;;;4.57;;
18526;SDS011;9393;42.158;24.748;2023-10-31T09:38:40;7.57;;;4.60;;
18526;SDS011;9393;42.158;24.748;2023-10-31T09:41:44;13.07;;;4.45;;
18526;SDS011;9393;42.158;24.748;2023-10-31T09:44:54;9.25;;;4.25;;
18526;SDS011;9393;42.158;24.748;2023-10-31T09:47:59;8.15;;;3.75;;
18526;SDS011;9393;42.158;24.748;2023-10-31T09:51:09;10.07;;;4.45;;
18526;SDS011;9393;42.158;24.748;2023-10-31T09:54:14;12.23;;;4.60;;
18526;SDS011;9393;42.158;24.748;2023-10-31T09:57:21;10.40;;;3.85;;
18526;SDS011;9393;42.158;24.748;2023-10-31T10:00:25;10.98;;;4.38;;
18526;SDS011;9393;42.158;24.748;2023-10-31T10:03:29;10.07;;;4.60;;
18526;SDS011;9393;42.158;24.748;2023-10-31T10:06:35;17.02;;;5.47;;
18526;SDS011;9393;42.158;24.748;2023-10-31T10:09:45;12.23;;;5.90;;
18526;SDS011;9393;42.158;24.748;2023-10-31T10:12:51;14.02;;;4.88;;
18526;SDS011;9393;42.158;24.748;2023-10-31T10:15:55;14.43;;;5.80;;
18526;SDS011;9393;42.158;24.748;2023-10-31T10:19:11;8.23;;;5.13;;
18526;SDS011;9393;42.158;24.748;2023-10-31T10:22:21;16.95;;;5.57;;
18526;SDS011;9393;42.158;24.748;2023-10-31T10:25:32;16.38;;;5.70;;
18526;SDS011;9393;42.158;24.748;2023-10-31T10:28:46;15.35;;;5.15;;
18526;SDS011;9393;42.158;24.748;2023-10-31T10:31:51;13.05;;;5.43;;
18526;SDS011;9393;42.158;24.748;2023-10-31T10:34:56;15.60;;;5.68;;
18526;SDS011;9393;42.158;24.748;2023-10-31T10:38:01;11.60;;;5.22;;
18526;SDS011;9393;42.158;24.748;2023-10-31T10:41:09;12.93;;;5.35;;
18526;SDS011;9393;42.158;24.748;2023-10-31T10:44:17;10.55;;;4.80;;
18526;SDS011;9393;42.158;24.748;2023-10-31T10:47:22;15.27;;;5.63;;
18526;SDS011;9393;42.158;24.748;2023-10-31T10:50:28;12.50;;;5.20;;
18526;SDS011;9393;42.158;24.748;2023-10-31T10:53:42;13.55;;;4.97;;
18526;SDS011;9393;42.158;24.748;2023-10-31T10:56:53;11.50;;;5.15;;
18526;SDS011;9393;42.158;24.748;2023-10-31T11:00:03;11.98;;;4.43;;
18526;SDS011;9393;42.158;24.748;2023-10-31T11:03:10;17.20;;;4.82;;
18526;SDS011;9393;42.158;24.748;2023-10-31T11:06:15;9.63;;;4.68;;
18526;SDS011;9393;42.158;24.748;2023-10-31T11:09:21;12.15;;;4.75;;
18526;SDS011;9393;42.158;24.748;2023-10-31T11:12:26;13.43;;;5.30;;
18526;SDS011;9393;42.158;24.748;2023-10-31T11:15:31;11.90;;;4.57;;
18526;SDS011;9393;42.158;24.748;2023-10-31T11:18:36;10.88;;;4.75;;
18526;SDS011;9393;42.158;24.748;2023-10-31T11:21:52;10.38;;;4.30;;
18526;SDS011;9393;42.158;24.748;2023-10-31T11:24:58;14.23;;;4.40;;
18526;SDS011;9393;42.158;24.748;2023-10-31T11:28:11;8.23;;;4.10;;
18526;SDS011;9393;42.158;24.748;2023-10-31T11:31:19;8.70;;;4.05;;
18526;SDS011;9393;42.158;24.748;2023-10-31T11:34:26;14.50;;;4.07;;
18526;SDS011;9393;42.158;24.748;2023-10-31T11:37:32;12.57;;;4.00;;
18526;SDS011;9393;42.158;24.748;2023-10-31T11:40:39;9.35;;;4.20;;
18526;SDS011;9393;42.158;24.748;2023-10-31T11:44:04;10.48;;;4.40;;
18526;SDS011;9393;42.158;24.748;2023-10-31T11:47:10;8.50;;;3.60;;
18526;SDS011;9393;42.158;24.748;2023-10-31T11:50:19;8.15;;;3.47;;
18526;SDS011;9393;42.158;24.748;2023-10-31T11:53:27;7.93;;;3.70;;
18526;SDS011;9393;42.158;24.748;2023-10-31T11:56:33;9.75;;;4.10;;
18526;SDS011;9393;42.158;24.748;2023-10-31T11:59:37;14.52;;;3.88;;
18526;SDS011;9393;42.158;24.748;2023-10-31T12:02:42;13.25;;;4.38;;
18526;SDS011;9393;42.158;24.748;2023-10-31T12:06:01;11.85;;;4.10;;
18526;SDS011;9393;42.158;24.748;2023-10-31T12:09:06;13.00;;;4.60;;
18526;SDS011;9393;42.158;24.748;2023-10-31T12:12:12;16.63;;;4.82;;
18526;SDS011;9393;42.158;24.748;2023-10-31T12:15:16;14.55;;;4.65;;
18526;SDS011;9393;42.158;24.748;2023-10-31T12:18:20;14.60;;;4.75;;
18526;SDS011;9393;42.158;24.748;2023-10-31T12:21:35;14.88;;;5.75;;
18526;SDS011;9393;42.158;24.748;2023-10-31T12:24:40;15.32;;;6.40;;
18526;SDS011;9393;42.158;24.748;2023-10-31T12:27:47;13.93;;;6.18;;
18526;SDS011;9393;42.158;24.748;2023-10-31T12:30:52;17.33;;;6.80;;
18526;SDS011;9393;42.158;24.748;2023-10-31T12:33:57;17.15;;;8.88;;
18526;SDS011;9393;42.158;24.748;2023-10-31T12:37:08;13.30;;;8.60;;
18526;SDS011;9393;42.158;24.748;2023-10-31T12:40:12;19.27;;;8.75;;
18526;SDS011;9393;42.158;24.748;2023-10-31T12:43:21;19.20;;;8.38;;
18526;SDS011;9393;42.158;24.748;2023-10-31T12:46:43;17.50;;;9.93;;
18526;SDS011;9393;42.158;24.748;2023-10-31T12:49:47;20.40;;;12.15;;
18526;SDS011;9393;42.158;24.748;2023-10-31T12:52:51;21.05;;;13.82;;
18526;SDS011;9393;42.158;24.748;2023-10-31T12:55:57;28.70;;;16.13;;
18526;SDS011;9393;42.158;24.748;2023-10-31T12:59:03;33.78;;;18.92;;
18526;SDS011;9393;42.158;24.748;2023-10-31T13:02:09;31.02;;;15.10;;
18526;SDS011;9393;42.158;24.748;2023-10-31T13:05:14;20.80;;;10.70;;
18526;SDS011;9393;42.158;24.748;2023-10-31T13:08:19;24.73;;;9.38;;
18526;SDS011;9393;42.158;24.748;2023-10-31T13:11:23;14.43;;;6.78;;
18526;SDS011;9393;42.158;24.748;2023-10-31T13:14:29;17.17;;;7.50;;
18526;SDS011;9393;42.158;24.748;2023-10-31T13:17:33;13.93;;;6.32;;
18526;SDS011;9393;42.158;24.748;2023-10-31T13:20:40;16.10;;;7.05;;
18526;SDS011;9393;42.158;24.748;2023-10-31T13:23:43;14.38;;;6.95;;
18526;SDS011;9393;42.158;24.748;2023-10-31T13:26:49;17.27;;;7.60;;
18526;SDS011;9393;42.158;24.748;2023-10-31T13:29:56;21.52;;;12.05;;
18526;SDS011;9393;42.158;24.748;2023-10-31T13:33:00;19.55;;;11.63;;
18526;SDS011;9393;42.158;24.748;2023-10-31T13:36:05;23.85;;;11.63;;
18526;SDS011;9393;42.158;24.748;2023-10-31T13:39:09;21.88;;;9.88;;
18526;SDS011;9393;42.158;24.748;2023-10-31T13:42:13;22.65;;;9.25;;
18526;SDS011;9393;42.158;24.748;2023-10-31T13:45:19;14.25;;;7.78;;
18526;SDS011;9393;42.158;24.748;2023-10-31T13:48:23;23.13;;;8.50;;
18526;SDS011;9393;42.158;24.748;2023-10-31T13:51:28;20.02;;;7.22;;
18526;SDS011;9393;42.158;24.748;2023-10-31T13:54:31;18.35;;;7.75;;
18526;SDS011;9393;42.158;24.748;2023-10-31T13:57:35;11.65;;;6.25;;
18526;SDS011;9393;42.158;24.748;2023-10-31T14:00:43;12.10;;;5.95;;
18526;SDS011;9393;42.158;24.748;2023-10-31T14:03:47;19.15;;;7.00;;
18526;SDS011;9393;42.158;24.748;2023-10-31T14:06:52;14.73;;;6.93;;
18526;SDS011;9393;42.158;24.748;2023-10-31T14:09:56;15.60;;;7.45;;
18526;SDS011;9393;42.158;24.748;2023-10-31T14:13:00;17.08;;;8.20;;
18526;SDS011;9393;42.158;24.748;2023-10-31T14:16:06;22.20;;;8.70;;
18526;SDS011;9393;42.158;24.748;2023-10-31T14:19:10;17.88;;;7.15;;
18526;SDS011;9393;42.158;24.748;2023-10-31T14:22:15;14.90;;;6.18;;
18526;SDS011;9393;42.158;24.748;2023-10-31T14:25:21;17.67;;;6.72;;
18526;SDS011;9393;42.158;24.748;2023-10-31T14:28:25;17.42;;;6.40;;
18526;SDS011;9393;42.158;24.748;2023-10-31T14:31:30;15.30;;;6.43;;
18526;SDS011;9393;42.158;24.748;2023-10-31T14:34:34;17.83;;;7.38;;
18526;SDS011;9393;42.158;24.748;2023-10-31T14:37:38;18.92;;;7.38;;
18526;SDS011;9393;42.158;24.748;2023-10-31T14:40:42;19.60;;;7.38;;
18526;SDS011;9393;42.158;24.748;2023-10-31T14:43:46;18.38;;;8.00;;
18526;SDS011;9393;42.158;24.748;2023-10-31T14:46:52;18.38;;;7.78;;
18526;SDS011;9393;42.158;24.748;2023-10-31T14:49:56;17.35;;;8.00;;
18526;SDS011;9393;42.158;24.748;2023-10-31T14:53:00;20.45;;;7.43;;
18526;SDS011;9393;42.158;24.748;2023-10-31T14:56:04;15.90;;;8.20;;
18526;SDS011;9393;42.158;24.748;2023-10-31T14:59:09;15.30;;;7.30;;
18526;SDS011;9393;42.158;24.748;2023-10-31T15:02:14;26.05;;;11.23;;
18526;SDS011;9393;42.158;24.748;2023-10-31T15:05:18;21.75;;;9.90;;
18526;SDS011;9393;42.158;24.748;2023-10-31T15:08:25;18.90;;;8.95;;
18526;SDS011;9393;42.158;24.748;2023-10-31T15:11:47;19.98;;;8.20;;
18526;SDS011;9393;42.158;24.748;2023-10-31T15:14:51;23.95;;;8.05;;
18526;SDS011;9393;42.158;24.748;2023-10-31T15:18:08;14.05;;;7.50;;
18526;SDS011;9393;42.158;24.748;2023-10-31T15:21:19;27.48;;;9.75;;
18526;SDS011;9393;42.158;24.748;2023-10-31T15:24:23;23.17;;;9.40;;
18526;SDS011;9393;42.158;24.748;2023-10-31T15:27:27;29.17;;;8.40;;
18526;SDS011;9393;42.158;24.748;2023-10-31T15:30:31;22.67;;;9.13;;
18526;SDS011;9393;42.158;24.748;2023-10-31T15:33:36;19.55;;;9.15;;
18526;SDS011;9393;42.158;24.748;2023-10-31T15:36:41;23.95;;;8.90;;
18526;SDS011;9393;42.158;24.748;2023-10-31T15:39:45;18.23;;;9.57;;
18526;SDS011;9393;42.158;24.748;2023-10-31T15:42:50;17.77;;;8.85;;
18526;SDS011;9393;42.158;24.748;2023-10-31T15:45:54;23.20;;;9.02;;
18526;SDS011;9393;42.158;24.748;2023-10-31T15:49:00;17.73;;;9.50;;
18526;SDS011;9393;42.158;24.748;2023-10-31T15:52:04;27.13;;;9.80;;
18526;SDS011;9393;42.158;24.748;2023-10-31T15:55:08;25.90;;;9.70;;
18526;SDS011;9393;42.158;24.748;2023-10-31T15:58:12;21.45;;;9.85;;
18526;SDS011;9393;42.158;24.748;2023-10-31T16:01:16;21.70;;;9.05;;
18526;SDS011;9393;42.158;24.748;2023-10-31T16:04:21;23.33;;;10.43;;
18526;SDS011;9393;42.158;24.748;2023-10-31T16:07:27;28.52;;;10.13;;
18526;SDS011;9393;42.158;24.748;2023-10-31T16:10:31;23.15;;;10.07;;
18526;SDS011;9393;42.158;24.748;2023-10-31T16:13:35;26.27;;;12.73;;
18526;SDS011;9393;42.158;24.748;2023-10-31T16:16:42;83.63;;;33.63;;
18526;SDS011;9393;42.158;24.748;2023-10-31T16:19:47;35.88;;;16.98;;
18526;SDS011;9393;42.158;24.748;2023-10-31T16:22:51;31.33;;;14.20;;
18526;SDS011;9393;42.158;24.748;2023-10-31T16:25:55;25.55;;;14.02;;
18526;SDS011;9393;42.158;24.748;2023-10-31T16:28:59;24.02;;;12.85;;
18526;SDS011;9393;42.158;24.748;2023-10-31T16:32:03;27.02;;;12.35;;
18526;SDS011;9393;42.158;24.748;2023-10-31T16:35:11;25.10;;;12.77;;
18526;SDS011;9393;42.158;24.748;2023-10-31T16:38:15;25.45;;;12.65;;
18526;SDS011;9393;42.158;24.748;2023-10-31T16:41:22;26.73;;;11.15;;
18526;SDS011;9393;42.158;24.748;2023-10-31T16:44:27;29.77;;;11.90;;
18526;SDS011;9393;42.158;24.748;2023-10-31T16:47:31;26.75;;;12.20;;
18526;SDS011;9393;42.158;24.748;2023-10-31T16:50:37;25.52;;;12.35;;
18526;SDS011;9393;42.158;24.748;2023-10-31T16:53:41;27.30;;;12.30;;
18526;SDS011;9393;42.158;24.748;2023-10-31T16:56:45;27.08;;;12.07;;
18526;SDS011;9393;42.158;24.748;2023-10-31T16:59:49;30.00;;;11.88;;
18526;SDS011;9393;42.158;24.748;2023-10-31T17:02:53;27.90;;;11.02;;
18526;SDS011;9393;42.158;24.748;2023-10-31T17:05:58;30.05;;;10.68;;
18526;SDS011;9393;42.158;24.748;2023-10-31T17:09:02;25.42;;;10.60;;
18526;SDS011;9393;42.158;24.748;2023-10-31T17:12:06;25.58;;;10.52;;
18526;SDS011;9393;42.158;24.748;2023-10-31T17:15:11;30.70;;;10.60;;
18526;SDS011;9393;42.158;24.748;2023-10-31T17:18:14;31.65;;;10.52;;
18526;SDS011;9393;42.158;24.748;2023-10-31T17:21:23;25.42;;;10.55;;
18526;SDS011;9393;42.158;24.748;2023-10-31T17:24:27;22.50;;;9.93;;
18526;SDS011;9393;42.158;24.748;2023-10-31T17:27:31;29.58;;;10.43;;
18526;SDS011;9393;42.158;24.748;2023-10-31T17:30:35;28.73;;;10.68;;
18526;SDS011;9393;42.158;24.748;2023-10-31T17:33:39;21.42;;;10.10;;
18526;SDS011;9393;42.158;24.748;2023-10-31T17:36:47;20.67;;;9.98;;
18526;SDS011;9393;42.158;24.748;2023-10-31T17:39:51;20.27;;;10.65;;
18526;SDS011;9393;42.158;24.748;2023-10-31T17:42:54;33.60;;;11.30;;
18526;SDS011;9393;42.158;24.748;2023-10-31T17:45:59;41.72;;;19.15;;
18526;SDS011;9393;42.158;24.748;2023-10-31T17:49:03;52.25;;;26.02;;
18526;SDS011;9393;42.158;24.748;2023-10-31T17:52:10;56.95;;;26.50;;
18526;SDS011;9393;42.158;24.748;2023-10-31T17:55:14;44.95;;;24.00;;
18526;SDS011;9393;42.158;24.748;2023-10-31T17:58:21;48.10;;;27.00;;
18526;SDS011;9393;42.158;24.748;2023-10-31T18:01:25;55.70;;;28.45;;
18526;SDS011;9393;42.158;24.748;2023-10-31T18:04:29;60.17;;;28.90;;
18526;SDS011;9393;42.158;24.748;2023-10-31T18:07:35;53.13;;;28.77;;
18526;SDS011;9393;42.158;24.748;2023-10-31T18:10:40;64.50;;;29.73;;
18526;SDS011;9393;42.158;24.748;2023-10-31T18:13:44;55.95;;;27.52;;
18526;SDS011;9393;42.158;24.748;2023-10-31T18:16:48;49.75;;;26.95;;
18526;SDS011;9393;42.158;24.748;2023-10-31T18:19:52;53.47;;;28.42;;